Time;durP1;ratioP1;P1;durP2;ratioP2;P2;SDS_P1;SDS_P2;PMS_P1;PMS_P2;Temp;Humidity;BMP_temperature;BMP_pressure;BME280_temperature;BME280_humidity;BME280_pressure;Samples;Min_cycle;Max_cycle;Signal;HPM_P1;HPM_P2
2023/09/14 00:01:36;;;;;;;9.43;6.18;;;;;;;21.55;72.32;98927.81;5051082;28;20025;-93
2023/09/14 00:04:04;;;;;;;9.68;6.43;;;;;;;21.26;73.32;98878.41;5054211;28;20038;-88
2023/09/14 00:06:32;;;;;;;12.10;6.40;;;;;;;21.63;73.67;98927.28;5060753;28;20037;-92
2023/09/14 00:08:59;;;;;;;10.18;6.95;;;;;;;21.63;74.32;98938.13;5056913;28;20113;-92
2023/09/14 00:11:38;;;;;;;11.55;6.65;;;;;;;21.08;73.84;98876.00;5053902;28;20041;-88
2023/09/14 00:14:05;;;;;;;12.90;7.53;;;;;;;21.28;74.90;98935.97;5053512;28;20045;-90
2023/09/14 00:16:33;;;;;;;14.35;7.20;;;;;;;21.48;75.35;98938.19;5052071;28;20037;-90
2023/09/14 00:19:00;;;;;;;10.23;6.72;;;;;;;21.23;75.34;98911.94;5062868;28;20131;-95
2023/09/14 00:21:26;;;;;;;11.45;6.85;;;;;;;21.22;76.31;98928.28;5045264;28;20053;-90
2023/09/14 00:23:56;;;;;;;10.60;6.85;;;;;;;21.40;75.14;98926.13;5052685;28;20041;-88
2023/09/14 00:26:23;;;;;;;11.93;6.65;;;;;;;21.09;75.27;98871.47;5056771;28;20435;-93
2023/09/14 00:28:49;;;;;;;10.20;6.13;;;;;;;21.27;75.29;98878.28;5053778;28;20037;-91
2023/09/14 00:31:20;;;;;;;10.18;6.47;;;;;;;21.27;74.90;98861.19;5057759;28;20048;-90
2023/09/14 00:33:48;;;;;;;12.57;7.25;;;;;;;21.34;75.56;98889.56;5055781;28;20060;-90
2023/09/14 00:36:14;;;;;;;11.02;6.70;;;;;;;21.60;75.58;98925.66;5049986;28;20037;-92
2023/09/14 00:38:41;;;;;;;10.70;6.75;;;;;;;21.27;76.19;98874.72;5042643;28;20131;-93
2023/09/14 00:41:09;;;;;;;10.27;7.15;;;;;;;21.59;76.25;98912.22;5045057;28;20557;-92
2023/09/14 00:43:34;;;;;;;14.02;7.15;;;;;;;21.58;76.42;98911.38;5040926;28;20041;-92
2023/09/14 00:46:00;;;;;;;10.15;6.28;;;;;;;21.47;77.08;98909.41;5049393;28;20045;-92
2023/09/14 00:48:28;;;;;;;9.48;7.15;;;;;;;21.43;79.09;98912.44;5049815;28;20033;-91
2023/09/14 00:50:55;;;;;;;10.75;7.32;;;;;;;21.47;78.63;98893.19;5044079;28;20551;-93
2023/09/14 00:53:21;;;;;;;9.35;6.43;;;;;;;21.58;79.86;98924.00;5050776;28;20033;-92
2023/09/14 00:55:47;;;;;;;10.45;6.70;;;;;;;21.52;81.36;98920.78;5039038;28;20075;-94
2023/09/14 00:58:15;;;;;;;8.88;6.63;;;;;;;21.30;80.70;98866.41;5045379;28;20041;-93
2023/09/14 01:00:42;;;;;;;12.32;6.35;;;;;;;21.43;81.68;98893.50;5037844;28;20036;-93
2023/09/14 01:03:11;;;;;;;10.73;6.47;;;;;;;21.24;82.11;98864.13;5043819;28;20083;-93
2023/09/14 01:05:40;;;;;;;11.25;7.70;;;;;;;21.36;82.61;98868.69;5056438;28;21302;-91
2023/09/14 01:08:06;;;;;;;9.70;6.82;;;;;;;21.27;82.89;98853.09;5059117;28;20048;-93
2023/09/14 01:10:32;;;;;;;11.80;6.45;;;;;;;21.41;82.68;98871.97;5039100;28;20049;-93
2023/09/14 01:12:58;;;;;;;9.95;6.45;;;;;;;21.48;82.15;98885.94;5056680;28;20061;-92
2023/09/14 01:15:29;;;;;;;9.60;6.80;;;;;;;21.56;82.73;98915.13;5035972;28;20060;-92
2023/09/14 01:18:01;;;;;;;12.43;6.72;;;;;;;21.68;81.95;98914.28;5037635;28;20053;-92
2023/09/14 01:20:58;;;;;;;10.73;7.53;;;;;;;21.71;80.01;98900.56;5038525;28;20469;-91
2023/09/14 01:23:36;;;;;;;10.45;7.32;;;;;;;21.91;79.49;98918.94;5038658;28;20087;-92
2023/09/14 01:26:04;;;;;;;9.70;6.70;;;;;;;21.83;79.95;98899.66;5038334;28;20495;-92
2023/09/14 01:28:30;;;;;;;13.48;6.78;;;;;;;21.72;80.93;98886.03;5040079;28;20041;-91
2023/09/14 01:30:56;;;;;;;10.02;7.18;;;;;;;21.66;81.89;98889.16;5036968;28;20041;-94
2023/09/14 01:33:24;;;;;;;11.50;7.45;;;;;;;21.66;83.13;98911.69;5039167;28;20148;-93
2023/09/14 01:35:56;;;;;;;12.50;7.53;;;;;;;21.64;83.20;98910.94;5058575;28;20048;-94
2023/09/14 01:38:22;;;;;;;11.68;7.07;;;;;;;21.53;83.17;98898.16;5038124;28;20037;-94
2023/09/14 01:40:50;;;;;;;10.75;7.70;;;;;;;21.70;83.79;98925.88;5038103;28;20163;-93
2023/09/14 01:43:18;;;;;;;10.60;6.85;;;;;;;21.60;82.96;98893.19;5035427;28;20033;-93
2023/09/14 01:45:44;;;;;;;12.57;7.05;;;;;;;21.57;83.03;98892.53;5037629;28;20047;-92
2023/09/14 01:48:14;;;;;;;10.48;7.68;;;;;;;21.60;83.32;98912.13;5036727;28;20091;-92
2023/09/14 01:50:40;;;;;;;11.75;7.53;;;;;;;21.24;83.44;98854.16;5038250;28;20065;-92
2023/09/14 01:53:06;;;;;;;9.13;6.57;;;;;;;21.47;84.58;98885.06;5037302;28;20072;-93
2023/09/14 01:55:31;;;;;;;14.55;6.80;;;;;;;21.49;85.34;98885.81;5041784;28;20061;-93
2023/09/14 01:57:57;;;;;;;10.93;7.95;;;;;;;21.27;87.16;98875.56;5039617;28;20474;-93
2023/09/14 02:00:26;;;;;;;9.95;6.75;;;;;;;21.37;86.65;98873.13;5053041;28;20506;-92
2023/09/14 02:02:52;;;;;;;12.20;7.22;;;;;;;21.44;87.96;98898.78;5052040;28;20509;-92
2023/09/14 02:05:41;;;;;;;10.93;7.40;;;;;;;21.01;90.18;98884.63;5048015;28;20021;-94
2023/09/14 02:08:09;;;;;;;14.00;7.45;;;;;;;20.67;90.27;98841.84;5043279;28;20494;-92
2023/09/14 02:10:35;;;;;;;10.88;7.40;;;;;;;21.02;89.22;98892.66;5023106;28;20496;-93
2023/09/14 02:13:01;;;;;;;11.05;7.40;;;;;;;20.74;88.88;98844.13;5024850;28;20063;-91
2023/09/14 02:15:28;;;;;;;11.27;7.00;;;;;;;20.81;89.07;98858.97;5025140;28;20057;-92
2023/09/14 02:17:54;;;;;;;14.98;7.22;;;;;;;20.96;88.29;98870.56;5027467;28;20080;-91
2023/09/14 02:20:20;;;;;;;11.13;6.88;;;;;;;20.99;88.46;98887.47;5028157;28;20041;-91
2023/09/14 02:22:47;;;;;;;13.55;7.50;;;;;;;20.97;88.15;98886.69;5010944;28;20065;-91
2023/09/14 02:25:13;;;;;;;12.95;8.45;;;;;;;21.06;87.49;98890.59;5012162;28;20037;-92
2023/09/14 02:27:38;;;;;;;12.23;8.13;;;;;;;21.04;86.12;98889.84;5003776;28;20033;-93
2023/09/14 02:30:06;;;;;;;13.20;7.47;;;;;;;20.92;86.50;98899.63;4997983;28;20041;-93
2023/09/14 02:32:33;;;;;;;15.07;7.85;;;;;;;20.59;86.86;98857.69;4999564;28;20129;-92
2023/09/14 02:34:59;;;;;;;12.80;7.97;;;;;;;20.44;88.88;98861.38;4999792;28;20064;-95
2023/09/14 02:37:25;;;;;;;14.55;8.60;;;;;;;20.49;88.73;98870.03;4997859;28;20365;-90
2023/09/14 02:39:51;;;;;;;15.93;7.78;;;;;;;20.57;89.07;98889.34;5000911;28;20048;-91
2023/09/14 02:42:17;;;;;;;12.15;7.32;;;;;;;20.55;91.09;98915.56;4998521;28;20096;-91
2023/09/14 02:44:43;;;;;;;13.30;7.70;;;;;;;20.44;91.28;98902.75;5000682;28;20120;-91
2023/09/14 02:47:09;;;;;;;16.63;7.22;;;;;;;20.39;91.39;98904.06;5000720;28;20081;-93
2023/09/14 02:49:36;;;;;;;10.20;7.45;;;;;;;20.18;96.77;98920.66;5003197;28;20070;-93
2023/09/14 02:52:03;;;;;;;14.05;7.80;;;;;;;20.19;95.70;98925.09;5002439;28;20044;-92
2023/09/14 02:54:28;;;;;;;13.15;7.45;;;;;;;19.75;97.59;98888.28;4998954;28;20089;-92
2023/09/14 02:56:54;;;;;;;11.95;8.05;;;;;;;19.47;100.00;98867.53;5002219;28;20037;-92
2023/09/14 02:59:20;;;;;;;12.90;7.97;;;;;;;19.62;100.00;98844.13;5006226;28;20064;-90
2023/09/14 03:01:46;;;;;;;12.57;8.00;;;;;;;20.15;100.00;98915.47;5005335;28;20033;-93
2023/09/14 03:04:13;;;;;;;13.48;7.47;;;;;;;19.82;100.00;98846.47;5000102;28;20095;-92
2023/09/14 03:06:41;;;;;;;11.65;7.65;;;;;;;20.01;99.93;98874.97;5001541;28;20053;-92
2023/09/14 03:09:08;;;;;;;9.95;7.07;;;;;;;19.96;99.63;98855.53;5005335;28;20034;-94
2023/09/14 03:11:33;;;;;;;12.18;7.72;;;;;;;20.01;99.04;98862.34;5005099;28;20046;-93
2023/09/14 03:13:59;;;;;;;10.82;7.95;;;;;;;20.14;99.42;98872.34;5006159;28;20065;-94
2023/09/14 03:16:25;;;;;;;12.18;7.50;;;;;;;19.86;100.00;98864.22;5000200;28;20070;-92
2023/09/14 03:18:51;;;;;;;11.63;8.05;;;;;;;20.07;100.00;98875.44;4998799;28;20418;-92
2023/09/14 03:21:25;;;;;;;10.48;7.38;;;;;;;20.19;100.00;98891.81;5006308;28;20061;-90
2023/09/14 03:23:52;;;;;;;14.07;7.63;;;;;;;20.08;100.00;98869.09;4998452;28;20058;-91
2023/09/14 03:26:19;;;;;;;12.77;8.15;;;;;;;20.19;100.00;98873.81;4997520;28;20034;-93
2023/09/14 03:28:48;;;;;;;14.70;8.60;;;;;;;20.36;100.00;98888.03;4997399;28;20038;-93
2023/09/14 03:31:14;;;;;;;14.18;7.93;;;;;;;20.18;100.00;98880.16;4995404;28;20045;-90
2023/09/14 03:33:40;;;;;;;11.18;7.28;;;;;;;20.36;99.48;98896.13;4997080;28;20041;-93
2023/09/14 03:36:06;;;;;;;10.75;7.50;;;;;;;20.40;98.21;98873.34;4997416;28;20507;-91
2023/09/14 03:38:32;;;;;;;12.07;7.93;;;;;;;20.51;98.05;98870.81;4997444;28;20065;-94
2023/09/14 03:40:59;;;;;;;11.18;7.35;;;;;;;20.44;97.61;98864.09;4997140;28;20034;-92
2023/09/14 03:43:25;;;;;;;12.05;7.60;;;;;;;20.66;96.46;98874.34;4996323;28;20038;-92
2023/09/14 03:45:51;;;;;;;12.93;7.53;;;;;;;20.61;95.47;98863.88;4996194;28;20045;-91
2023/09/14 03:48:17;;;;;;;10.98;7.35;;;;;;;20.43;95.07;98840.75;4996872;28;20049;-93
2023/09/14 03:50:43;;;;;;;12.15;7.88;;;;;;;20.44;95.40;98837.06;4996680;28;20511;-92
2023/09/14 03:53:10;;;;;;;11.20;7.50;;;;;;;20.58;95.73;98880.28;4996659;28;20037;-92
2023/09/14 03:55:36;;;;;;;12.27;7.80;;;;;;;20.48;95.83;98869.19;4996786;28;20042;-93
2023/09/14 03:58:03;;;;;;;12.52;7.90;;;;;;;20.43;97.75;98874.03;4997179;28;20038;-93
2023/09/14 04:00:29;;;;;;;11.00;7.80;;;;;;;20.43;97.88;98879.44;4998825;28;20089;-92
2023/09/14 04:02:55;;;;;;;12.38;8.05;;;;;;;20.49;97.23;98883.53;4996540;28;20053;-91
2023/09/14 04:05:22;;;;;;;10.98;7.70;;;;;;;20.58;97.97;98910.00;4995435;28;20436;-92
2023/09/14 04:07:48;;;;;;;12.27;8.13;;;;;;;20.46;98.36;98887.31;4996987;28;20045;-93
2023/09/14 04:10:14;;;;;;;11.02;7.72;;;;;;;20.53;98.30;98885.09;4996363;28;20046;-94
2023/09/14 04:12:41;;;;;;;15.07;7.88;;;;;;;20.55;98.56;98899.34;4997024;28;20048;-91
2023/09/14 04:15:11;;;;;;;11.23;7.88;;;;;;;20.65;98.32;98905.94;4995446;28;20042;-92
2023/09/14 04:17:37;;;;;;;11.90;8.05;;;;;;;20.32;98.54;98849.56;4996665;28;20132;-92
2023/09/14 04:20:14;;;;;;;11.15;7.57;;;;;;;20.53;98.36;98885.09;5027404;28;20674;-92
2023/09/14 04:22:40;;;;;;;14.00;8.35;;;;;;;;;;5038879;28;20044;-91
2023/09/14 04:25:06;;;;;;;10.55;6.80;;;;;;;20.26;98.63;98858.94;5037256;28;20051;-94
2023/09/14 04:27:33;;;;;;;10.40;7.78;;;;;;;19.96;99.44;98847.44;5038477;28;20071;-93
2023/09/14 04:29:58;;;;;;;13.57;8.25;;;;;;;19.99;99.81;98844.50;5038764;28;20513;-92
2023/09/14 04:32:26;;;;;;;11.93;7.45;;;;;;;20.32;98.29;98881.97;5039783;28;20033;-94
2023/09/14 04:34:52;;;;;;;15.80;9.55;;;;;;;20.42;97.79;98888.50;5058472;28;20406;-93
2023/09/14 04:37:17;;;;;;;11.38;7.93;;;;;;;20.31;97.39;98880.22;5042429;28;20045;-93
2023/09/14 04:39:45;;;;;;;10.38;7.00;;;;;;;20.38;97.42;98891.50;5039059;28;20044;-91
2023/09/14 04:42:11;;;;;;;12.35;7.80;;;;;;;20.07;97.53;98842.19;5038914;28;20090;-92
2023/09/14 04:44:37;;;;;;;12.98;9.18;;;;;;;20.11;97.59;98865.31;5040656;28;20444;-94
2023/09/14 04:47:03;;;;;;;11.35;7.43;;;;;;;20.17;97.91;98891.03;5046510;28;20164;-91
2023/09/14 04:49:31;;;;;;;10.13;7.88;;;;;;;20.03;97.57;98862.25;5039270;28;20513;-93
2023/09/14 04:51:56;;;;;;;14.07;8.38;;;;;;;20.04;97.52;98870.25;5038297;28;20135;-90
2023/09/14 04:54:22;;;;;;;12.25;7.93;;;;;;;20.15;97.52;98884.91;5038873;28;20068;-92
2023/09/14 04:56:48;;;;;;;15.32;7.63;;;;;;;19.82;97.54;98849.19;5037852;28;20136;-93
2023/09/14 04:59:14;;;;;;;13.23;8.80;;;;;;;20.09;97.86;98896.94;5038518;28;20467;-92
2023/09/14 05:01:40;;;;;;;13.27;7.78;;;;;;;20.03;98.97;98900.91;5038387;28;20017;-92
2023/09/14 05:04:06;;;;;;;10.65;7.40;;;;;;;19.92;100.00;98907.97;5038224;28;20033;-92
2023/09/14 05:06:33;;;;;;;11.85;8.15;;;;;;;19.47;100.00;98841.44;5038657;28;20033;-91
2023/09/14 05:08:59;;;;;;;12.52;8.00;;;;;;;19.68;100.00;98868.03;5036747;28;20151;-92
2023/09/14 05:11:25;;;;;;;16.00;8.30;;;;;;;19.96;100.00;98910.38;5058625;28;20124;-92
2023/09/14 05:13:54;;;;;;;14.23;7.55;;;;;;;20.01;100.00;98912.75;5038698;28;20033;-92
2023/09/14 05:16:19;;;;;;;16.20;7.90;;;;;;;19.85;100.00;98878.66;5037047;28;20051;-91
2023/09/14 05:18:45;;;;;;;11.27;7.60;;;;;;;19.95;100.00;98903.25;5035146;28;20070;-91
2023/09/14 05:21:12;;;;;;;13.38;7.60;;;;;;;19.96;100.00;98898.72;5006022;28;20043;-92
2023/09/14 05:23:39;;;;;;;15.57;8.60;;;;;;;19.92;99.54;98875.56;5013440;28;20041;-91
2023/09/14 05:26:05;;;;;;;12.45;7.88;;;;;;;20.11;99.01;98889.63;5019103;28;20049;-92
2023/09/14 05:28:31;;;;;;;13.75;7.75;;;;;;;20.35;98.21;98910.63;5020061;28;20060;-92
2023/09/14 05:30:57;;;;;;;14.00;7.43;;;;;;;20.23;97.73;98880.75;5018782;28;20132;-93
2023/09/14 05:33:26;;;;;;;16.65;7.82;;;;;;;20.55;97.71;98918.28;5019145;28;20042;-93
2023/09/14 05:35:52;;;;;;;12.35;7.80;;;;;;;20.61;96.16;98877.38;5016067;28;20041;-93
2023/09/14 05:38:18;;;;;;;12.05;7.20;;;;;;;20.76;95.54;98901.66;5015786;28;20055;-91
2023/09/14 05:40:50;;;;;;;12.02;7.72;;;;;;;20.71;95.53;98870.41;5018074;28;20037;-92
2023/09/14 05:43:15;;;;;;;12.15;8.18;;;;;;;21.01;94.53;98907.13;5018793;28;20025;-92
2023/09/14 05:45:41;;;;;;;22.08;8.38;;;;;;;21.20;93.80;98912.16;5017250;28;20052;-93
2023/09/14 05:48:08;;;;;;;11.68;7.80;;;;;;;21.27;92.18;98899.06;5017922;28;20113;-93
2023/09/14 05:50:35;;;;;;;13.05;7.80;;;;;;;21.31;89.98;98914.13;5019059;28;20045;-94
2023/09/14 05:53:02;;;;;;;14.57;8.23;;;;;;;21.37;88.85;98904.72;5019073;28;20037;-92
2023/09/14 05:55:27;;;;;;;14.00;8.38;;;;;;;21.34;88.40;98898.53;5018184;28;20095;-92
2023/09/14 05:57:58;;;;;;;12.48;8.15;;;;;;;21.33;88.18;98899.50;5018676;28;20527;-92
2023/09/14 06:00:24;;;;;;;17.17;9.13;;;;;;;21.27;88.96;98907.19;5018645;28;20553;-92
2023/09/14 06:02:50;;;;;;;11.80;7.57;;;;;;;21.21;88.78;98899.47;5019918;28;20033;-93
2023/09/14 06:05:16;;;;;;;14.77;9.60;;;;;;;21.23;88.62;98894.84;5017504;28;20451;-93
2023/09/14 06:07:42;;;;;;;11.77;7.60;;;;;;;21.07;89.50;98908.53;5018796;28;20073;-92
2023/09/14 06:10:08;;;;;;;15.52;8.15;;;;;;;21.08;89.68;98929.22;5019165;28;20064;-91
2023/09/14 06:12:34;;;;;;;17.58;8.25;;;;;;;21.12;89.57;98923.50;5018405;28;20038;-92
2023/09/14 06:15:02;;;;;;;17.45;8.70;;;;;;;20.95;89.99;98907.56;5018145;28;20060;-94
2023/09/14 06:17:28;;;;;;;19.50;8.32;;;;;;;21.30;87.52;98906.97;5015724;28;20034;-94
2023/09/14 06:19:54;;;;;;;14.38;8.18;;;;;;;21.35;88.68;98934.56;5000633;28;20049;-93
2023/09/14 06:22:20;;;;;;;12.57;7.18;;;;;;;21.82;85.70;98941.25;4997589;28;20041;-94
2023/09/14 06:24:46;;;;;;;12.43;7.38;;;;;;;22.04;83.82;98940.59;4998562;28;20041;-93
2023/09/14 06:27:12;;;;;;;11.88;7.22;;;;;;;22.03;82.33;98902.78;5019164;28;20057;-92
2023/09/14 06:29:38;;;;;;;11.57;7.32;;;;;;;22.42;81.32;98922.56;4998036;28;20495;-90
2023/09/14 06:32:06;;;;;;;12.65;7.55;;;;;;;22.53;81.29;98949.72;4996920;28;20042;-94
2023/09/14 06:34:31;;;;;;;14.80;7.28;;;;;;;22.35;82.20;98950.09;5003353;28;20518;-94
2023/09/14 06:36:57;;;;;;;9.50;6.57;;;;;;;22.63;81.39;98941.81;4996950;28;20124;-95
2023/09/14 06:39:23;;;;;;;9.35;7.18;;;;;;;22.65;80.02;98920.88;4997130;28;20036;-92
2023/09/14 06:41:49;;;;;;;15.82;7.25;;;;;;;22.96;79.23;98908.56;4999228;28;20034;-93
2023/09/14 06:44:19;;;;;;;12.10;6.97;;;;;;;23.51;76.56;98938.78;4994597;28;20038;-93
2023/09/14 06:46:45;;;;;;;13.30;7.72;;;;;;;23.71;74.68;98918.22;4996787;28;20097;-93
2023/09/14 06:49:13;;;;;;;12.00;8.23;;;;;;;24.18;71.90;98938.91;5000336;28;20034;-94
2023/09/14 06:51:39;;;;;;;13.30;7.35;;;;;;;24.53;70.97;98939.78;4994002;28;20103;-94
2023/09/14 06:54:05;;;;;;;12.48;7.60;;;;;;;24.88;69.04;98946.88;4997209;28;20042;-93
2023/09/14 06:56:31;;;;;;;14.13;7.38;;;;;;;24.93;68.54;98901.97;5008246;28;20121;-94
2023/09/14 06:58:57;;;;;;;11.98;7.72;;;;;;;25.13;66.92;98907.56;4997622;28;20049;-93
2023/09/14 07:01:23;;;;;;;11.50;6.97;;;;;;;25.41;65.83;98936.91;4996404;28;20048;-92
2023/09/14 07:03:51;;;;;;;13.85;7.00;;;;;;;25.66;64.95;98953.00;4996978;28;20042;-92
2023/09/14 07:06:18;;;;;;;12.35;7.10;;;;;;;25.48;65.36;98940.00;4998013;28;20041;-91
2023/09/14 07:08:44;;;;;;;14.02;7.30;;;;;;;25.57;65.61;98950.09;4996546;28;20514;-93
2023/09/14 07:11:10;;;;;;;12.75;6.50;;;;;;;25.69;65.06;98928.22;4996556;28;20041;-93
2023/09/14 07:13:36;;;;;;;15.15;8.75;;;;;;;25.48;64.66;98923.66;4996349;28;20659;-94
2023/09/14 07:16:03;;;;;;;11.55;7.25;;;;;;;25.30;64.50;98915.19;5014362;28;20064;-94
2023/09/14 07:18:31;;;;;;;12.55;7.15;;;;;;;25.44;66.13;98965.75;5011975;28;20503;-93
2023/09/14 07:20:58;;;;;;;12.05;7.28;;;;;;;25.12;66.00;98928.47;5006079;28;20046;-93
2023/09/14 07:23:26;;;;;;;9.93;6.80;;;;;;;25.17;67.09;98928.09;5015220;28;20126;-93
2023/09/14 07:25:52;;;;;;;10.98;7.47;;;;;;;25.09;66.81;98960.53;5015909;28;20487;-93
2023/09/14 07:28:20;;;;;;;8.52;6.97;;;;;;;25.17;67.13;98948.00;5016355;28;20041;-94
2023/09/14 07:30:47;;;;;;;10.65;6.60;;;;;;;24.64;68.27;98919.88;5014102;28;20041;-94
2023/09/14 07:33:13;;;;;;;10.25;6.78;;;;;;;24.89;67.27;98916.81;5014894;28;20046;-92
2023/09/14 07:35:40;;;;;;;13.95;7.63;;;;;;;24.97;69.01;98944.25;5032495;28;20046;-93
2023/09/14 07:38:08;;;;;;;12.32;7.05;;;;;;;24.86;68.37;98937.97;5032025;28;20562;-92
2023/09/14 07:40:37;;;;;;;12.57;8.73;;;;;;;24.74;68.09;98923.53;5037022;28;20380;-92
2023/09/14 07:43:03;;;;;;;12.13;6.78;;;;;;;25.00;69.23;98954.00;5015840;28;20049;-93
2023/09/14 07:45:30;;;;;;;13.07;7.28;;;;;;;25.07;67.03;98918.97;5015168;28;20041;-93
2023/09/14 07:47:56;;;;;;;15.00;7.35;;;;;;;24.68;68.20;98913.16;5017398;28;20041;-93
2023/09/14 07:50:22;;;;;;;10.40;6.55;;;;;;;25.38;65.51;98960.81;5015756;28;20041;-92
2023/09/14 07:52:48;;;;;;;15.07;7.43;;;;;;;25.49;63.90;98946.28;5022116;28;20056;-93
2023/09/14 07:55:14;;;;;;;11.82;6.75;;;;;;;25.45;62.46;98917.59;5018188;28;20075;-92
2023/09/14 07:57:41;;;;;;;11.30;7.15;;;;;;;25.99;62.36;98985.50;5019691;28;20045;-93
2023/09/14 08:00:08;;;;;;;11.15;8.38;;;;;;;26.18;60.57;98982.03;5017885;28;20396;-93
2023/09/14 08:02:34;;;;;;;10.85;6.95;;;;;;;26.17;61.71;98990.34;5016936;28;20041;-92
2023/09/14 08:05:00;;;;;;;10.05;6.88;;;;;;;26.21;60.73;98978.16;5019150;28;20059;-93
2023/09/14 08:07:27;;;;;;;10.50;6.57;;;;;;;26.74;58.48;98978.00;5017307;28;20042;-92
2023/09/14 08:09:52;;;;;;;11.52;7.10;;;;;;;26.53;58.96;98958.06;5017788;28;20041;-93
2023/09/14 08:12:18;;;;;;;10.77;7.13;;;;;;;26.66;58.08;98980.53;5019532;28;20619;-93
2023/09/14 08:14:46;;;;;;;11.05;7.22;;;;;;;26.03;58.72;98937.91;5018934;28;20117;-93
2023/09/14 08:17:12;;;;;;;11.88;7.20;;;;;;;26.24;59.25;98988.81;5019082;28;20038;-93
2023/09/14 08:19:38;;;;;;;10.23;6.95;;;;;;;26.19;59.96;98983.75;5019652;28;20052;-94
2023/09/14 08:22:04;;;;;;;9.48;6.57;;;;;;;26.23;59.92;98987.94;5018723;28;20045;-92
2023/09/14 08:24:30;;;;;;;12.18;7.22;;;;;;;26.37;58.73;98986.72;5017691;28;20044;-92
2023/09/14 08:26:55;;;;;;;10.02;7.15;;;;;;;26.40;58.98;98993.75;5018554;28;20038;-93
2023/09/14 08:29:21;;;;;;;9.35;6.93;;;;;;;26.29;58.79;98977.50;5018483;28;20121;-91
2023/09/14 08:31:49;;;;;;;9.00;6.47;;;;;;;26.29;57.13;98963.88;5016665;28;20132;-93
2023/09/14 08:34:15;;;;;;;8.32;6.00;;;;;;;26.32;57.55;98985.41;5017833;28;20499;-92
2023/09/14 08:36:41;;;;;;;10.80;6.57;;;;;;;26.25;58.64;98946.91;5017954;28;20056;-92
2023/09/14 08:39:07;;;;;;;9.15;6.43;;;;;;;26.40;57.68;98961.91;5015637;28;20095;-92
2023/09/14 08:41:37;;;;;;;10.70;6.72;;;;;;;26.55;57.47;98967.00;5019076;28;20491;-93
2023/09/14 08:44:04;;;;;;;13.60;6.18;;;;;;;26.64;56.23;98967.03;5018809;28;20041;-93
2023/09/14 08:46:34;;;;;;;9.45;6.13;;;;;;;26.76;55.29;98939.63;5034264;28;20038;-94
2023/09/14 08:49:03;;;;;;;9.55;5.93;;;;;;;26.84;55.15;98976.13;5019251;28;20083;-94
2023/09/14 08:51:32;;;;;;;11.50;6.32;;;;;;;27.29;54.49;98980.25;5020373;28;20037;-95
2023/09/14 08:53:59;;;;;;;10.95;5.93;;;;;;;27.24;54.17;98993.50;5017975;28;20048;-92
2023/09/14 08:56:25;;;;;;;11.30;7.25;;;;;;;26.98;54.83;98974.03;5018747;28;20376;-93
2023/09/14 08:58:52;;;;;;;9.43;6.40;;;;;;;26.81;55.51;98987.34;5018594;28;20057;-93
2023/09/14 09:01:18;;;;;;;8.98;6.13;;;;;;;26.68;55.85;98991.31;5017549;28;20041;-93
2023/09/14 09:03:44;;;;;;;13.48;6.78;;;;;;;26.38;56.56;98955.72;5034231;28;20057;-95
2023/09/14 09:06:11;;;;;;;8.60;6.82;;;;;;;26.48;57.56;98983.03;5018179;28;20559;-94
2023/09/14 09:08:37;;;;;;;33.72;10.65;;;;;;;26.50;56.91;98974.69;5018147;28;20518;-94
2023/09/14 09:11:04;;;;;;;14.68;7.28;;;;;;;26.40;58.39;98991.88;5016251;28;20037;-94
2023/09/14 09:13:34;;;;;;;10.77;6.55;;;;;;;26.53;58.48;98991.66;5019432;28;20076;-94
2023/09/14 09:16:00;;;;;;;13.00;6.57;;;;;;;26.63;57.94;98992.59;5017286;28;20041;-94
2023/09/14 09:18:26;;;;;;;11.35;6.75;;;;;;;26.58;58.33;98992.13;5015556;28;20491;-92
2023/09/14 09:20:52;;;;;;;14.07;7.15;;;;;;;26.38;57.68;98949.41;5017511;28;20124;-94
2023/09/14 09:23:21;;;;;;;10.50;7.20;;;;;;;26.70;57.82;98962.03;5019143;28;20061;-93
2023/09/14 09:25:48;;;;;;;10.02;6.45;;;;;;;27.00;56.05;98978.34;5016851;28;20049;-93
2023/09/14 09:28:15;;;;;;;9.40;6.63;;;;;;;26.67;56.12;98978.66;5017403;28;20088;-94
2023/09/14 09:30:41;;;;;;;11.38;6.07;;;;;;;26.79;53.53;98953.88;5016996;28;20037;-95
2023/09/14 09:33:07;;;;;;;10.25;6.90;;;;;;;27.17;53.59;98986.81;5017922;28;20037;-93
2023/09/14 09:35:34;;;;;;;9.10;6.15;;;;;;;27.20;55.01;99001.06;5017616;28;20033;-94
2023/09/14 09:38:11;;;;;;;12.48;6.13;;;;;;;26.99;53.52;98994.84;5017533;28;20040;-94
2023/09/14 09:40:42;;;;;;;9.50;6.38;;;;;;;26.58;54.05;98994.00;5018140;28;20533;-93
2023/09/14 09:43:08;;;;;;;10.38;6.43;;;;;;;26.66;54.29;98971.50;5017948;28;20514;-94
2023/09/14 09:45:34;;;;;;;9.05;6.00;;;;;;;26.78;53.24;98973.97;5031099;28;20029;-92
2023/09/14 09:48:01;;;;;;;12.98;5.72;;;;;;;27.33;51.78;98961.72;5016692;28;20041;-93
2023/09/14 09:50:28;;;;;;;9.32;5.72;;;;;;;27.57;49.98;98964.03;5015369;28;20496;-92
2023/09/14 09:52:54;;;;;;;10.65;6.13;;;;;;;27.35;49.55;98959.72;5016659;28;20037;-94
2023/09/14 09:55:23;;;;;;;6.75;4.85;;;;;;;27.29;48.29;98973.94;5016441;28;20056;-93
2023/09/14 09:57:52;;;;;;;9.30;6.15;;;;;;;27.66;50.08;98960.41;5016598;28;20087;-93
2023/09/14 10:00:19;;;;;;;11.45;7.40;;;;;;;28.13;49.38;98981.47;5016200;28;21131;-91
2023/09/14 10:02:47;;;;;;;9.77;5.93;;;;;;;28.54;46.99;98971.13;5017093;28;20061;-94
2023/09/14 10:05:13;;;;;;;9.77;6.60;;;;;;;28.59;47.28;98971.56;5016365;28;20041;-90
2023/09/14 10:07:40;;;;;;;8.85;6.28;;;;;;;27.96;48.05;98939.41;5015499;28;20173;-94
2023/09/14 10:10:07;;;;;;;10.90;6.20;;;;;;;28.26;46.67;98968.38;5016102;28;20052;-92
2023/09/14 10:12:38;;;;;;;10.30;6.18;;;;;;;28.33;46.84;98933.94;5017107;28;20046;-93
2023/09/14 10:15:07;;;;;;;9.05;6.80;;;;;;;28.74;46.96;98955.50;5013824;28;20384;-92
2023/09/14 10:17:34;;;;;;;8.45;6.85;;;;;;;29.07;47.22;98945.78;5016596;28;20136;-93
2023/09/14 10:20:03;;;;;;;10.00;6.10;;;;;;;28.90;46.37;98922.81;5020325;28;20045;-92
2023/09/14 10:22:29;;;;;;;13.52;7.60;;;;;;;28.08;48.53;98929.13;5016850;28;20049;-92
2023/09/14 10:24:55;;;;;;;8.95;6.45;;;;;;;28.37;47.72;98951.75;5016612;28;20047;-94
2023/09/14 10:27:23;;;;;;;7.95;5.50;;;;;;;28.23;46.18;98933.94;5017049;28;20036;-93
2023/09/14 10:29:51;;;;;;;8.60;5.70;;;;;;;28.52;46.75;98943.94;5017149;28;20052;-92
2023/09/14 10:32:21;;;;;;;12.48;6.88;;;;;;;28.26;45.12;98928.19;5015427;28;20056;-92
2023/09/14 10:34:48;;;;;;;8.48;5.43;;;;;;;28.61;44.31;98936.72;5015443;28;20038;-94
2023/09/14 10:37:16;;;;;;;6.25;5.13;;;;;;;28.95;43.17;98905.94;5012700;28;20037;-94
2023/09/14 10:39:45;;;;;;;8.20;5.40;;;;;;;29.16;42.58;98912.00;5015121;28;20048;-94
2023/09/14 10:42:11;;;;;;;8.13;5.88;;;;;;;29.26;41.43;98912.78;5014984;28;20033;-93
2023/09/14 10:44:37;;;;;;;9.15;5.38;;;;;;;28.77;40.83;98920.47;5016107;28;20040;-91
2023/09/14 10:47:05;;;;;;;7.70;4.80;;;;;;;28.79;41.56;98902.00;5005555;28;20044;-93
2023/09/14 10:49:35;;;;;;;5.32;4.25;;;;;;;28.76;42.68;98907.81;5016257;28;20495;-91
2023/09/14 10:52:01;;;;;;;7.80;5.00;;;;;;;28.49;44.26;98929.72;5015614;28;20045;-92
2023/09/14 10:54:30;;;;;;;7.15;5.30;;;;;;;28.78;44.26;98902.16;5015270;28;20049;-94
2023/09/14 10:56:56;;;;;;;7.50;5.07;;;;;;;28.92;44.28;98903.53;5013676;28;20069;-94
2023/09/14 10:59:46;;;;;;;8.80;6.63;;;;;;;28.86;44.82;98905.00;5016952;28;20412;-92
2023/09/14 11:02:11;;;;;;;7.38;5.03;;;;;;;28.87;45.21;98887.56;5011269;28;20048;-93
2023/09/14 11:05:11;;;;;;;12.40;6.20;;;;;;;28.98;45.50;98905.63;5028042;28;20034;-91
2023/09/14 11:07:39;;;;;;;10.23;5.80;;;;;;;28.85;44.99;98893.19;5014094;28;20061;-94
2023/09/14 11:10:09;;;;;;;7.45;5.50;;;;;;;29.05;46.10;98896.63;5030551;28;20092;-91
2023/09/14 11:12:39;;;;;;;8.45;5.00;;;;;;;29.28;45.61;98864.19;5003629;28;20046;-92
2023/09/14 11:15:14;;;;;;;12.63;5.68;;;;;;;29.34;46.65;98875.53;4996801;28;20107;-92
2023/09/14 11:17:43;;;;;;;6.38;4.97;;;;;;;29.36;45.95;98843.34;5014131;28;20483;-92
2023/09/14 11:20:41;;;;;;;8.07;4.75;;;;;;;29.75;45.55;98870.38;5007845;28;20192;-92
2023/09/14 11:23:07;;;;;;;6.18;4.65;;;;;;;29.52;46.26;98865.41;5010983;28;20045;-92
2023/09/14 11:25:36;;;;;;;5.68;4.43;;;;;;;29.42;46.37;98845.44;5010881;28;20349;-93
2023/09/14 11:28:02;;;;;;;8.38;4.68;;;;;;;29.38;46.61;98863.22;5018885;28;20072;-93